Time;durP1;ratioP1;P1;durP2;ratioP2;P2;SDS_P1;SDS_P2;PMS_P1;PMS_P2;Temp;Humidity;BMP_temperature;BMP_pressure;BME280_temperature;BME280_humidity;BME280_pressure;Samples;Min_cycle;Max_cycle;Signal;HPM_P1;HPM_P2
2022/06/05 00:02:33;;;;;;;5.40;3.10;;;;;;;16.77;61.74;100919.73;110675;1253;23053;-78
2022/06/05 00:05:22;;;;;;;4.90;3.90;;;;;;;16.67;62.17;100940.39;110677;1257;23651;-79
2022/06/05 00:08:35;;;;;;;8.80;4.70;;;;;;;16.61;62.82;100941.40;110527;1257;22133;-78
2022/06/05 00:11:11;;;;;;;5.30;4.10;;;;;;;16.58;63.75;100928.24;110538;1256;22092;-79
2022/06/05 00:13:51;;;;;;;5.10;4.10;;;;;;;16.58;64.26;100919.83;109983;1260;21978;-79
2022/06/05 00:16:28;;;;;;;6.80;4.60;;;;;;;16.58;64.82;100919.87;110385;1259;22039;-79
2022/06/05 00:18:59;;;;;;;6.70;5.10;;;;;;;16.58;65.28;100918.52;110161;1259;23678;-79
2022/06/05 00:21:31;;;;;;;5.40;4.90;;;;;;;16.61;65.60;100918.91;110298;1259;24559;-79
2022/06/05 00:24:00;;;;;;;;;;;;;;;16.63;65.82;100916.91;109480;1263;21961;-80
2022/06/05 00:26:55;;;;;;;6.20;5.20;;;;;;;16.54;66.17;100919.29;109493;1266;21993;-79
2022/06/05 00:29:50;;;;;;;8.30;5.80;;;;;;;16.52;66.44;100923.28;108902;1270;22004;-80
2022/06/05 00:32:29;;;;;;;7.80;6.90;;;;;;;16.51;66.59;100927.86;108677;1274;22050;-79
2022/06/05 00:35:28;;;;;;;8.60;7.80;;;;;;;16.49;66.80;100926.48;108812;1273;23719;-79
2022/06/05 00:38:17;;;;;;;10.70;8.50;;;;;;;16.47;67.01;100924.88;108579;1273;23462;-78
2022/06/05 00:41:26;;;;;;;10.00;7.90;;;;;;;16.45;67.23;100922.64;108609;1273;23832;-78
2022/06/05 00:44:00;;;;;;;10.40;9.40;;;;;;;16.44;67.62;100930.47;108884;1264;22113;-79
2022/06/05 00:46:37;;;;;;;10.70;8.50;;;;;;;16.43;67.60;100925.25;109494;1266;21992;-80
2022/06/05 00:49:25;;;;;;;11.20;10.10;;;;;;;16.40;67.73;100918.50;110508;1257;22963;-80
2022/06/05 00:51:57;;;;;;;11.60;10.50;;;;;;;16.36;67.96;100922.36;110494;1258;21973;-79
2022/06/05 00:54:29;;;;;;;11.00;9.90;;;;;;;16.33;68.10;100928.13;110481;1257;21983;-79
2022/06/05 00:57:10;;;;;;;;;;;;;;;16.31;68.35;100933.16;110336;1254;21939;-79
2022/06/05 00:59:46;;;;;;;12.60;10.70;;;;;;;16.21;68.72;100935.17;110775;1252;23337;-79
2022/06/05 01:02:21;;;;;;;11.20;10.10;;;;;;;16.20;68.92;100929.43;110435;1257;21975;-78
2022/06/05 01:05:17;;;;;;;11.50;10.30;;;;;;;16.17;68.73;100924.11;109496;1261;21962;-78
2022/06/05 01:07:49;;;;;;;12.10;11.00;;;;;;;16.10;68.57;100924.58;109905;1261;22023;-79
2022/06/05 01:10:42;;;;;;;12.50;11.20;;;;;;;16.07;68.78;100921.96;110085;1260;23609;-78
2022/06/05 01:14:14;;;;;;;14.10;9.80;;;;;;;16.05;68.96;100916.57;109373;1266;23871;-80
2022/06/05 01:18:02;;;;;;;11.20;9.80;;;;;;;15.96;68.79;100908.89;109812;1264;22002;-78
2022/06/05 01:21:31;;;;;;;12.80;11.50;;;;;;;15.88;68.93;100912.30;109828;1264;23537;-79
2022/06/05 01:24:40;;;;;;;16.30;13.20;;;;;;;15.84;68.82;100911.80;110637;1256;21966;-80
2022/06/05 01:27:18;;;;;;;13.40;11.70;;;;;;;15.81;68.65;100911.85;110387;1256;24336;-80
2022/06/05 01:30:08;;;;;;;12.30;10.90;;;;;;;15.74;68.54;100904.30;110651;1257;22134;-80
2022/06/05 01:33:13;;;;;;;;;;;;;;;;;;;;;
2022/06/05 01:36:35;;;;;;;13.20;11.70;;;;;;;15.63;68.78;100903.34;111071;1252;22030;-79
2022/06/05 01:39:35;;;;;;;12.70;10.30;;;;;;;15.58;68.75;100905.05;110645;1254;21958;-80
2022/06/05 01:42:24;;;;;;;14.60;12.60;;;;;;;15.56;68.77;100907.04;110998;1254;21957;-79
2022/06/05 01:45:02;;;;;;;12.80;11.10;;;;;;;15.52;68.92;100909.29;110761;1252;23724;-80
2022/06/05 01:47:40;;;;;;;13.00;11.80;;;;;;;15.50;68.83;100906.89;110900;1252;21961;-81
2022/06/05 01:50:25;;;;;;;13.20;11.70;;;;;;;15.46;68.81;100907.73;110841;1253;23590;-80
2022/06/05 01:53:18;;;;;;;15.50;14.10;;;;;;;15.42;69.01;100910.48;110181;1261;22945;-80
2022/06/05 01:56:16;;;;;;;16.10;14.80;;;;;;;15.35;69.03;100911.65;110209;1260;22425;-80
2022/06/05 01:59:01;;;;;;;16.40;14.70;;;;;;;15.30;69.17;100913.80;110056;1260;22049;-79
2022/06/05 02:01:53;;;;;;;;;;;;;;;15.20;69.22;100909.21;110410;1260;24390;-79
2022/06/05 02:04:39;;;;;;;14.50;13.20;;;;;;;15.05;69.35;100907.89;110239;1259;21998;-78
2022/06/05 02:07:42;;;;;;;14.20;12.40;;;;;;;14.96;69.62;100907.89;109908;1260;23055;-80
2022/06/05 02:10:38;;;;;;;12.80;11.20;;;;;;;14.88;69.75;100913.13;109892;1257;22764;-81
2022/06/05 02:13:11;;;;;;;12.50;10.60;;;;;;;14.80;69.90;100917.59;110616;1257;21974;-79
2022/06/05 02:15:42;;;;;;;13.30;10.90;;;;;;;14.75;69.90;100919.73;110004;1260;22089;-80
2022/06/05 02:18:14;;;;;;;12.00;10.80;;;;;;;14.70;69.89;100917.89;110142;1260;23044;-81
2022/06/05 02:20:51;;;;;;;11.90;10.10;;;;;;;14.67;69.93;100916.70;110108;1260;22264;-82
2022/06/05 02:23:32;;;;;;;10.70;9.30;;;;;;;14.64;69.85;100921.48;110113;1260;23744;-81
2022/06/05 02:26:12;;;;;;;10.90;9.90;;;;;;;14.61;69.78;100923.06;110124;1260;22305;-80
2022/06/05 02:29:30;;;;;;;14.60;13.20;;;;;;;14.55;69.79;100922.31;110798;1254;21971;-81
2022/06/05 02:32:41;;;;;;;17.40;13.60;;;;;;;14.53;69.84;100924.65;110551;1254;23590;-76
2022/06/05 02:35:36;;;;;;;18.90;14.10;;;;;;;14.53;69.89;100930.14;110615;1252;21973;-80
2022/06/05 02:38:50;;;;;;;19.60;15.10;;;;;;;14.54;69.63;100931.92;110729;1254;24282;-79
2022/06/05 02:41:32;;;;;;;20.60;15.60;;;;;;;14.55;69.57;100935.41;110639;1256;21975;-78
2022/06/05 02:44:38;;;;;;;16.90;14.90;;;;;;;14.57;69.40;100940.27;110335;1257;21953;-80
2022/06/05 02:47:34;;;;;;;14.90;13.50;;;;;;;14.58;69.23;100943.48;110296;1257;22022;-80
2022/06/05 02:50:38;;;;;;;15.90;13.40;;;;;;;14.60;69.18;100942.61;110121;1257;23486;-79
2022/06/05 02:53:11;;;;;;;17.00;15.20;;;;;;;14.61;69.11;100944.60;109895;1260;24491;-80
2022/06/05 02:55:42;;;;;;;17.00;15.20;;;;;;;14.64;69.09;100948.06;109797;1261;23832;-79
2022/06/05 02:58:29;;;;;;;;;;;;;;;;;;;;;
2022/06/05 03:04:38;;;;;;;16.20;11.20;;;;;;;14.64;68.90;100955.95;109029;1273;22429;-81
2022/06/05 03:07:24;;;;;;;13.00;11.50;;;;;;;14.66;68.87;100951.69;108651;1276;23749;-81
2022/06/05 03:10:13;;;;;;;18.40;16.60;;;;;;;14.68;68.99;100951.48;108579;1276;23029;-82
2022/06/05 03:12:55;;;;;;;14.30;12.90;;;;;;;14.70;69.02;100953.48;108597;1277;22838;-81
2022/06/05 03:15:41;;;;;;;13.90;12.60;;;;;;;14.71;68.87;100955.67;108594;1276;22927;-81
2022/06/05 03:18:14;;;;;;;12.10;10.90;;;;;;;14.73;68.81;100957.59;108943;1267;21978;-81
2022/06/05 03:20:51;;;;;;;14.00;11.90;;;;;;;14.76;68.73;100960.05;109498;1267;22028;-82
2022/06/05 03:23:27;;;;;;;13.50;12.20;;;;;;;14.77;68.74;100961.73;109455;1264;23860;-81
2022/06/05 03:26:13;;;;;;;13.40;12.10;;;;;;;14.78;68.61;100963.48;110032;1261;23012;-81
2022/06/05 03:29:23;;;;;;;12.40;10.90;;;;;;;14.78;68.72;100963.33;109959;1260;22735;-82
2022/06/05 03:32:07;;;;;;;12.20;11.00;;;;;;;14.81;68.98;100963.33;109915;1260;23644;-82
2022/06/05 03:34:52;;;;;;;11.00;9.80;;;;;;;14.84;68.89;100963.00;109943;1254;21981;-81
2022/06/05 03:37:48;;;;;;;11.60;10.40;;;;;;;14.84;68.54;100963.04;110350;1257;21988;-82
2022/06/05 03:41:21;;;;;;;13.40;10.20;;;;;;;14.82;68.53;100965.59;110356;1257;21984;-82
2022/06/05 03:44:20;;;;;;;;;;;;;;;;;;;;;
2022/06/05 03:47:04;;;;;;;13.90;12.50;;;;;;;14.89;68.53;100968.45;110067;1258;24432;-81
2022/06/05 03:49:41;;;;;;;14.90;13.60;;;;;;;14.94;68.24;100965.77;109599;1263;22024;-82
2022/06/05 03:52:22;;;;;;;17.00;14.00;;;;;;;14.99;68.04;100967.86;109282;1266;22028;-82
2022/06/05 03:55:22;;;;;;;17.20;15.60;;;;;;;15.05;68.05;100971.14;109394;1263;21987;-80
2022/06/05 03:57:54;;;;;;;16.90;15.30;;;;;;;15.12;67.83;100970.54;109224;1265;23040;-81
2022/06/05 04:00:39;;;;;;;;;;;;;;;;;;;;;
2022/06/05 04:03:29;;;;;;;17.40;15.70;;;;;;;15.19;67.48;100978.73;109604;1263;23080;-80
2022/06/05 04:06:18;;;;;;;;;;;;;;;;;;;;;
2022/06/05 04:09:07;;;;;;;16.80;15.30;;;;;;;15.29;67.05;100985.37;109951;1260;21987;-81
2022/06/05 04:12:14;;;;;;;14.50;13.10;;;;;;;15.34;66.95;100986.88;110072;1260;23266;-79
2022/06/05 04:15:01;;;;;;;16.50;14.40;;;;;;;15.44;66.80;100989.92;110595;1251;21972;-80
2022/06/05 04:17:47;;;;;;;14.90;13.60;;;;;;;15.53;66.60;100993.27;110728;1252;21960;-81
2022/06/05 04:20:27;;;;;;;14.50;13.30;;;;;;;15.58;66.10;100995.27;110480;1256;22218;-79
2022/06/05 04:23:14;;;;;;;13.90;12.40;;;;;;;15.59;65.85;100998.71;110739;1256;21957;-80
2022/06/05 04:25:54;;;;;;;13.40;12.20;;;;;;;15.57;65.51;101001.23;110586;1255;22039;-80
2022/06/05 04:28:41;;;;;;;13.40;12.00;;;;;;;15.58;65.29;101005.63;110695;1256;22119;-80
2022/06/05 04:31:25;;;;;;;12.90;11.70;;;;;;;15.63;65.10;101000.85;110765;1256;21963;-81
2022/06/05 04:34:06;;;;;;;12.40;10.10;;;;;;;15.67;64.92;101002.42;110277;1261;22046;-80
2022/06/05 04:36:51;;;;;;;11.20;10.10;;;;;;;15.76;64.73;101007.24;110049;1260;21965;-81
2022/06/05 04:39:48;;;;;;;10.40;9.20;;;;;;;15.85;64.63;101007.90;110527;1256;22442;-79
2022/06/05 04:42:39;;;;;;;11.90;8.50;;;;;;;15.99;64.60;101011.87;110462;1256;21994;-80
2022/06/05 04:45:45;;;;;;;12.60;8.40;;;;;;;16.18;64.60;101012.41;110756;1256;22447;-81
2022/06/05 04:48:33;;;;;;;8.60;7.80;;;;;;;16.30;63.86;101017.55;110607;1256;21994;-80
2022/06/05 04:51:30;;;;;;;10.70;8.30;;;;;;;16.37;63.22;101021.64;110609;1255;22037;-79
2022/06/05 04:54:07;;;;;;;8.70;7.80;;;;;;;16.41;62.52;101018.81;110810;1253;21972;-79
2022/06/05 04:57:06;;;;;;;8.80;7.90;;;;;;;16.47;62.28;101021.34;110408;1253;21971;-80
2022/06/05 04:59:38;;;;;;;10.10;9.10;;;;;;;16.57;62.05;101019.58;110273;1259;22816;-79
2022/06/05 05:02:20;;;;;;;9.30;8.30;;;;;;;16.67;61.73;101014.21;109858;1261;21968;-79
2022/06/05 05:05:04;;;;;;;12.40;8.50;;;;;;;16.78;61.40;101012.86;110406;1260;22793;-79
2022/06/05 05:08:02;;;;;;;9.10;8.20;;;;;;;16.90;60.97;101008.04;109954;1260;22070;-79
2022/06/05 05:11:14;;;;;;;9.50;8.50;;;;;;;17.03;60.49;101014.29;109958;1259;23791;-79
2022/06/05 05:13:43;;;;;;;11.20;8.50;;;;;;;17.17;60.24;101014.13;110204;1255;22760;-78
2022/06/05 05:16:15;;;;;;;11.40;9.50;;;;;;;17.28;60.05;101018.13;110054;1260;21970;-79
2022/06/05 05:19:00;;;;;;;;;;;;;;;;;;;;;
2022/06/05 05:21:33;;;;;;;15.40;11.30;;;;;;;17.50;59.36;101019.59;110025;1257;21981;-79
2022/06/05 05:24:11;;;;;;;10.60;9.50;;;;;;;17.63;59.47;101020.89;109896;1260;22077;-78
2022/06/05 05:26:40;;;;;;;15.20;10.60;;;;;;;17.77;58.92;101018.63;109745;1261;21978;-78
2022/06/05 05:29:09;;;;;;;11.30;10.30;;;;;;;17.86;58.46;101014.94;109788;1258;23612;-78
2022/06/05 05:31:40;;;;;;;11.90;9.30;;;;;;;17.97;58.35;101010.79;109901;1260;24457;-78
2022/06/05 05:34:14;;;;;;;11.90;10.50;;;;;;;18.10;58.17;101004.95;109840;1256;21966;-81
2022/06/05 05:36:51;;;;;;;10.10;9.20;;;;;;;18.27;58.06;101003.63;110356;1254;21980;-82
2022/06/05 05:42:22;;;;;;;8.70;7.90;;;;;;;18.69;57.67;101003.45;110088;1257;21981;-82
2022/06/05 05:45:00;;;;;;;10.60;9.10;;;;;;;19.04;57.96;101008.61;110584;1257;22979;-81
2022/06/05 05:47:32;;;;;;;9.00;8.10;;;;;;;19.42;57.78;101008.86;110307;1257;22512;-81
2022/06/05 05:50:41;;;;;;;;;;;;;;;;;;;;;
2022/06/05 05:53:22;;;;;;;8.80;7.30;;;;;;;20.34;56.15;101011.35;110067;1257;21975;-83
2022/06/05 05:56:05;;;;;;;8.80;7.70;;;;;;;20.73;54.96;101010.70;109540;1264;23604;-83
2022/06/05 05:58:48;;;;;;;10.00;8.90;;;;;;;21.12;53.73;101007.50;109598;1264;21990;-83
2022/06/05 06:01:30;;;;;;;12.20;7.50;;;;;;;21.52;52.53;101011.00;109582;1263;23122;-82
2022/06/05 06:04:05;;;;;;;8.50;7.40;;;;;;;21.87;51.78;101009.91;109282;1266;23107;-78
2022/06/05 06:06:40;;;;;;;7.30;6.60;;;;;;;22.23;51.19;101010.58;109245;1264;21989;-78
2022/06/05 06:09:09;;;;;;;8.80;7.30;;;;;;;22.57;50.65;101011.41;109005;1267;23623;-79
2022/06/05 06:11:42;;;;;;;7.00;5.70;;;;;;;22.89;49.54;101010.82;108792;1273;22785;-79
2022/06/05 06:14:11;;;;;;;7.20;6.10;;;;;;;23.19;48.56;101005.75;108699;1267;22022;-79
2022/06/05 06:16:43;;;;;;;6.60;5.50;;;;;;;23.44;47.77;101002.50;108935;1266;21975;-79
2022/06/05 06:19:15;;;;;;;7.30;6.20;;;;;;;23.65;46.75;100999.02;108849;1270;22000;-79
2022/06/05 06:21:44;;;;;;;9.10;6.10;;;;;;;23.71;45.26;101000.02;108837;1273;23026;-78
2022/06/05 06:24:14;;;;;;;7.40;6.30;;;;;;;23.67;45.15;100997.39;108837;1270;22004;-79
2022/06/05 06:26:50;;;;;;;12.20;7.20;;;;;;;23.77;45.47;100998.38;109059;1267;22008;-80
2022/06/05 06:29:47;;;;;;;7.60;6.20;;;;;;;23.97;45.25;100996.00;109243;1267;22003;-80
2022/06/05 06:32:22;;;;;;;8.50;7.30;;;;;;;24.20;45.35;100994.70;108696;1273;23594;-80
2022/06/05 06:34:52;;;;;;;6.40;5.60;;;;;;;24.41;44.45;100995.24;108453;1276;22119;-78
2022/06/05 06:37:21;;;;;;;6.20;5.60;;;;;;;24.61;44.46;100991.91;109073;1270;23073;-79
2022/06/05 06:39:50;;;;;;;8.40;5.70;;;;;;;24.91;44.12;100991.14;108929;1269;21980;-79
2022/06/05 06:42:23;;;;;;;6.60;6.00;;;;;;;25.18;43.25;100987.77;109037;1270;22400;-79
2022/06/05 06:45:00;;;;;;;8.20;5.90;;;;;;;25.39;42.57;100988.06;109177;1267;22169;-80
2022/06/05 06:47:32;;;;;;;7.80;6.20;;;;;;;25.47;41.39;100990.02;109212;1266;21984;-80
2022/06/05 06:50:10;;;;;;;6.30;5.70;;;;;;;25.36;40.88;100984.83;109400;1261;21982;-80
2022/06/05 06:52:45;;;;;;;6.20;4.70;;;;;;;25.39;41.54;100985.84;109715;1258;24308;-80
2022/06/05 06:55:17;;;;;;;5.80;5.20;;;;;;;25.52;41.44;100984.17;109599;1263;23045;-80
2022/06/05 06:57:47;;;;;;;8.30;5.20;;;;;;;25.62;41.05;100984.45;109396;1263;21972;-80
2022/06/05 07:00:19;;;;;;;7.00;5.00;;;;;;;25.82;41.24;100977.50;109617;1263;21975;-80
2022/06/05 07:03:03;;;;;;;6.30;5.50;;;;;;;26.04;40.39;100975.91;109870;1262;22136;-80
2022/06/05 07:05:37;;;;;;;6.00;5.50;;;;;;;26.14;39.27;100979.36;109600;1261;22047;-79
2022/06/05 07:08:10;;;;;;;7.00;5.00;;;;;;;26.09;39.49;100978.99;109507;1263;21981;-83
2022/06/05 07:10:40;;;;;;;5.80;5.20;;;;;;;26.22;40.06;100977.53;110049;1257;21980;-80
2022/06/05 07:13:21;;;;;;;5.80;5.30;;;;;;;26.44;39.65;100972.16;110328;1256;22953;-79
2022/06/05 07:16:11;;;;;;;8.40;7.60;;;;;;;26.66;39.16;100971.77;110284;1256;21960;-80
2022/06/05 07:18:48;;;;;;;6.80;5.80;;;;;;;26.88;39.05;100973.27;110304;1256;23002;-79
2022/06/05 07:21:26;;;;;;;6.80;4.60;;;;;;;27.11;38.40;100973.74;110215;1256;21959;-79
2022/06/05 07:23:59;;;;;;;4.30;3.90;;;;;;;27.31;37.28;100970.17;111088;1255;23702;-79
2022/06/05 07:26:32;;;;;;;5.90;4.10;;;;;;;27.48;36.53;100973.83;110094;1257;23017;-78
2022/06/05 07:29:04;;;;;;;7.20;4.30;;;;;;;27.58;36.15;100976.79;110221;1256;23078;-78
2022/06/05 07:31:41;;;;;;;4.10;3.70;;;;;;;27.61;35.44;100981.48;110608;1252;22354;-79
2022/06/05 07:34:12;;;;;;;5.70;3.20;;;;;;;27.58;34.41;100981.41;110738;1252;23731;-79
2022/06/05 07:36:52;;;;;;;5.50;3.20;;;;;;;27.50;34.23;100974.70;110684;1251;22027;-80
2022/06/05 07:39:33;;;;;;;6.30;3.50;;;;;;;27.60;33.78;100974.85;110990;1252;22910;-80
2022/06/05 07:42:06;;;;;;;5.20;3.80;;;;;;;27.68;33.18;100975.09;110864;1252;23575;-79
2022/06/05 07:44:40;;;;;;;6.10;3.80;;;;;;;27.77;33.09;100974.32;110996;1252;24430;-79
2022/06/05 07:47:09;;;;;;;6.40;3.60;;;;;;;27.95;33.10;100975.58;110500;1259;21965;-79
2022/06/05 07:49:40;;;;;;;;;;;;;;;28.06;32.98;100976.35;109385;1261;21950;-79
2022/06/05 07:55:10;;;;;;;5.40;3.80;;;;;;;28.40;33.41;100984.61;109469;1261;23035;-80
2022/06/05 07:57:43;;;;;;;3.90;3.30;;;;;;;28.65;32.77;100987.88;109233;1264;21977;-79
2022/06/05 08:00:17;;;;;;;4.30;3.30;;;;;;;28.80;32.26;100984.00;109484;1264;23651;-77
2022/06/05 08:02:50;;;;;;;3.90;2.90;;;;;;;28.83;31.14;100984.65;109194;1264;23682;-78
2022/06/05 08:05:29;;;;;;;3.90;3.00;;;;;;;28.62;31.47;100985.48;109283;1265;23599;-78
2022/06/05 08:08:04;;;;;;;5.40;3.80;;;;;;;28.72;31.81;100985.25;109112;1262;21977;-77
2022/06/05 08:10:38;;;;;;;4.70;3.20;;;;;;;28.74;30.84;100985.25;109950;1260;21976;-78
2022/06/05 08:13:50;;;;;;;;;;;;;;;;;;;;;
2022/06/05 08:17:02;;;;;;;3.40;2.80;;;;;;;28.81;31.50;100982.30;110441;1251;21953;-78
2022/06/05 08:19:44;;;;;;;5.30;2.70;;;;;;;28.99;30.24;100976.59;110575;1252;21925;-77
2022/06/05 08:22:33;;;;;;;5.00;3.40;;;;;;;28.92;29.53;100975.44;110490;1249;23579;-78
2022/06/05 08:25:29;;;;;;;;;;;;;;;;;;;;;
2022/06/05 08:28:06;;;;;;;4.10;3.20;;;;;;;29.13;29.75;100983.68;110665;1250;24987;-79
2022/06/05 08:30:42;;;;;;;3.30;3.00;;;;;;;29.30;29.30;100986.30;110723;1249;21922;-78
2022/06/05 08:33:25;;;;;;;4.20;3.20;;;;;;;29.28;28.23;100984.79;110713;1249;21974;-79
2022/06/05 08:36:08;;;;;;;3.50;3.00;;;;;;;29.26;28.35;100986.14;110416;1254;23840;-78
2022/06/05 08:42:52;;;;;;;4.00;2.00;;;;;;;29.02;28.16;100983.54;110501;1254;23700;-79
2022/06/05 08:45:50;;;;;;;7.90;3.30;;;;;;;28.89;28.36;100977.90;110318;1257;23634;-79
2022/06/05 08:49:10;;;;;;;;;;;;;;;;;;;;;
2022/06/05 08:52:01;;;;;;;6.20;2.60;;;;;;;29.01;28.14;100973.58;110331;1257;22978;-78
2022/06/05 08:55:07;;;;;;;3.00;2.50;;;;;;;29.16;28.54;100975.07;109645;1260;22022;-79
2022/06/05 08:58:21;;;;;;;3.50;2.70;;;;;;;29.26;27.61;100970.46;110176;1260;21987;-79
2022/06/05 09:01:19;;;;;;;3.10;2.10;;;;;;;29.28;27.63;100968.77;109779;1260;22728;-79
2022/06/05 09:04:37;;;;;;;3.00;2.20;;;;;;;29.13;27.58;100965.84;109630;1261;23699;-77
2022/06/05 09:07:19;;;;;;;5.50;2.60;;;;;;;28.81;27.27;100968.16;109864;1262;21990;-79
2022/06/05 09:10:40;;;;;;;6.00;5.10;;;;;;;28.39;28.05;100966.88;109391;1264;21965;-78
2022/06/05 09:13:20;;;;;;;2.70;2.10;;;;;;;28.28;28.67;100964.09;108726;1270;23125;-78
2022/06/05 09:16:16;;;;;;;2.90;2.60;;;;;;;28.16;28.73;100961.75;108812;1271;23697;-77
2022/06/05 09:18:58;;;;;;;13.50;3.20;;;;;;;28.08;28.87;100957.02;108468;1276;22009;-80
2022/06/05 09:21:53;;;;;;;2.70;1.70;;;;;;;28.08;28.88;100954.85;108218;1276;23789;-79
2022/06/05 09:24:56;;;;;;;4.30;2.70;;;;;;;28.19;29.12;100953.77;108393;1276;21997;-78
2022/06/05 09:28:35;;;;;;;6.90;2.70;;;;;;;28.31;28.96;100956.49;108168;1276;21987;-78
2022/06/05 09:32:00;;;;;;;4.30;2.60;;;;;;;28.43;29.03;100957.11;108404;1276;22223;-78
2022/06/05 09:34:55;;;;;;;3.60;2.80;;;;;;;28.57;28.85;100953.30;108329;1276;22105;-78
2022/06/05 09:38:07;;;;;;;3.20;2.50;;;;;;;28.60;29.05;100947.05;108302;1279;22035;-78
2022/06/05 09:41:24;;;;;;;3.20;2.50;;;;;;;28.69;29.24;100942.02;108297;1279;23778;-78
2022/06/05 09:44:25;;;;;;;5.20;2.60;;;;;;;28.73;29.30;100936.48;108434;1276;23090;-78
2022/06/05 09:47:12;;;;;;;3.20;2.50;;;;;;;28.75;29.09;100937.61;108715;1273;21991;-78
2022/06/05 09:49:57;;;;;;;3.70;2.40;;;;;;;28.48;28.85;100947.16;109036;1261;23061;-78
2022/06/05 09:52:40;;;;;;;4.30;2.50;;;;;;;28.46;29.43;100946.04;110129;1254;23074;-78
2022/06/05 09:55:28;;;;;;;4.10;3.00;;;;;;;28.58;29.22;100948.96;110486;1252;22002;-78
2022/06/05 09:58:32;;;;;;;3.50;2.60;;;;;;;28.55;28.86;100940.97;110734;1252;23573;-78
2022/06/05 10:01:28;;;;;;;3.30;2.70;;;;;;;28.63;29.13;100936.17;110739;1252;22192;-77
2022/06/05 10:04:05;;;;;;;3.00;2.50;;;;;;;28.71;28.89;100933.11;110717;1252;22436;-79
2022/06/05 10:06:42;;;;;;;3.10;2.10;;;;;;;28.67;28.38;100932.91;110603;1250;23596;-78
2022/06/05 10:09:23;;;;;;;3.00;2.50;;;;;;;28.53;28.58;100932.11;110357;1257;21978;-78
2022/06/05 10:12:11;;;;;;;3.70;3.00;;;;;;;28.37;28.94;100929.39;110344;1254;23789;-77
2022/06/05 10:15:00;;;;;;;4.00;2.10;;;;;;;28.36;28.86;100926.17;110199;1258;22996;-79
2022/06/05 10:17:51;;;;;;;2.90;2.10;;;;;;;28.43;29.05;100924.61;110624;1258;22214;-80
2022/06/05 10:21:06;;;;;;;3.80;2.50;;;;;;;28.35;28.97;100918.68;110198;1257;22107;-79
2022/06/05 10:24:23;;;;;;;4.00;2.40;;;;;;;28.28;29.21;100919.44;110350;1257;23585;-79
2022/06/05 10:27:00;;;;;;;3.70;3.00;;;;;;;28.15;28.84;100920.69;109209;1267;23574;-78
2022/06/05 10:29:48;;;;;;;8.60;2.20;;;;;;;28.02;28.77;100922.48;108906;1270;21982;-79
2022/06/05 10:32:35;;;;;;;10.90;10.00;;;;;;;27.70;28.67;100921.79;109049;1270;22761;-80
2022/06/05 10:35:25;;;;;;;3.40;2.70;;;;;;;27.51;29.44;100916.20;108755;1274;21995;-79
2022/06/05 10:38:32;;;;;;;3.50;2.50;;;;;;;27.43;29.71;100917.15;108547;1273;22002;-80
2022/06/05 10:41:32;;;;;;;3.30;2.50;;;;;;;27.35;29.88;100914.41;108393;1278;23088;-79
2022/06/05 10:45:01;;;;;;;3.80;2.80;;;;;;;27.35;29.99;100915.34;108365;1275;23621;-78
2022/06/05 10:48:16;;;;;;;4.00;3.60;;;;;;;27.29;29.98;100912.88;108255;1273;22000;-78
2022/06/05 10:51:19;;;;;;;4.60;3.30;;;;;;;27.06;29.93;100905.80;108478;1276;21995;-79
2022/06/05 10:54:31;;;;;;;3.20;2.20;;;;;;;26.84;30.14;100904.11;108421;1276;23628;-79
2022/06/05 10:57:23;;;;;;;2.10;1.90;;;;;;;26.60;29.90;100899.41;108075;1282;21997;-79
2022/06/05 11:00:06;;;;;;;4.20;1.90;;;;;;;26.44;30.18;100892.77;108287;1279;22010;-80
2022/06/05 11:03:36;;;;;;;5.20;2.50;;;;;;;26.32;30.04;100890.63;108590;1279;23934;-80
2022/06/05 11:06:55;;;;;;;7.70;2.90;;;;;;;26.08;30.03;100884.54;108402;1277;22815;-78
2022/06/05 11:10:02;;;;;;;2.50;2.20;;;;;;;25.97;30.41;100885.30;108403;1276;22005;-78
2022/06/05 11:16:38;;;;;;;2.50;2.00;;;;;;;25.77;31.50;100888.23;108184;1279;23671;-81
2022/06/05 11:20:09;;;;;;;3.90;2.40;;;;;;;25.80;32.15;100888.02;108326;1279;21993;-79
2022/06/05 11:23:02;;;;;;;8.20;4.90;;;;;;;25.80;32.02;100894.34;108369;1279;22838;-79
2022/06/05 11:25:51;;;;;;;6.70;3.40;;;;;;;25.71;31.65;100887.20;108453;1276;23860;-78
2022/06/05 11:28:52;;;;;;;2.50;2.20;;;;;;;25.64;31.87;100882.30;108369;1277;22107;-77
2022/06/05 11:31:58;;;;;;;5.00;2.40;;;;;;;25.40;31.56;100876.59;108579;1273;21991;-78
2022/06/05 11:34:43;;;;;;;2.90;2.20;;;;;;;25.18;31.63;100868.06;108773;1272;22001;-79
2022/06/05 11:37:42;;;;;;;4.30;2.30;;;;;;;25.12;32.07;100866.52;108679;1273;23081;-79
2022/06/05 11:40:52;;;;;;;3.80;2.90;;;;;;;25.02;32.20;100869.41;108427;1276;23697;-80
2022/06/05 11:43:41;;;;;;;6.40;3.20;;;;;;;24.98;33.00;100864.70;108344;1282;23740;-78
2022/06/05 11:46:57;;;;;;;6.20;3.70;;;;;;;25.04;33.42;100860.77;107729;1282;23735;-78
2022/06/05 11:50:04;;;;;;;4.70;3.40;;;;;;;25.09;33.65;100854.15;107906;1280;22460;-78
2022/06/05 11:53:11;;;;;;;4.50;2.80;;;;;;;25.12;33.38;100855.11;108210;1279;23710;-78
2022/06/05 11:56:00;;;;;;;3.80;3.30;;;;;;;25.13;33.37;100847.86;108647;1264;23690;-79
2022/06/05 11:58:46;;;;;;;4.40;2.80;;;;;;;25.11;33.25;100847.48;109863;1258;21959;-78
2022/06/05 12:01:26;;;;;;;3.60;3.30;;;;;;;25.02;33.45;100842.36;110336;1252;21955;-79
2022/06/05 12:04:11;;;;;;;8.40;5.30;;;;;;;24.92;33.66;100834.35;110562;1252;23593;-79
2022/06/05 12:06:49;;;;;;;7.10;3.70;;;;;;;24.90;33.76;100832.73;110593;1252;21982;-79
2022/06/05 12:09:29;;;;;;;3.60;3.00;;;;;;;24.92;33.79;100831.94;110551;1252;21992;-79
2022/06/05 12:12:19;;;;;;;4.20;3.60;;;;;;;24.94;33.90;100830.55;110726;1252;23696;-78
2022/06/05 12:15:21;;;;;;;8.30;3.80;;;;;;;24.98;34.08;100825.02;110564;1252;22043;-83
2022/06/05 12:18:10;;;;;;;5.50;3.40;;;;;;;25.06;34.38;100822.73;110624;1257;22034;-80
2022/06/05 12:20:59;;;;;;;5.60;3.80;;;;;;;25.17;34.30;100820.46;110471;1255;21983;-80
2022/06/05 12:24:11;;;;;;;4.20;3.80;;;;;;;25.24;34.12;100829.42;110772;1255;22023;-79
2022/06/05 12:26:57;;;;;;;3.90;2.70;;;;;;;25.12;34.06;100823.69;110123;1255;23154;-78
2022/06/05 12:30:23;;;;;;;4.20;3.40;;;;;;;25.07;34.47;100822.43;110494;1255;21974;-79
2022/06/05 12:33:17;;;;;;;2.90;2.70;;;;;;;25.00;34.24;100811.97;109090;1270;21994;-83
2022/06/05 12:35:59;;;;;;;7.60;5.40;;;;;;;25.05;34.32;100811.11;108451;1276;21985;-77
2022/06/05 12:38:54;;;;;;;5.30;3.20;;;;;;;25.12;34.03;100807.16;108416;1276;23599;-78
2022/06/05 12:42:14;;;;;;;3.90;2.50;;;;;;;25.13;33.69;100805.44;108514;1276;21992;-79
2022/06/05 12:44:51;;;;;;;6.50;5.40;;;;;;;25.08;33.73;100794.24;108572;1273;22003;-78
2022/06/05 12:47:53;;;;;;;4.50;3.20;;;;;;;25.04;33.79;100786.88;108601;1273;23059;-78
2022/06/05 12:50:36;;;;;;;5.70;2.80;;;;;;;25.02;33.87;100782.75;108609;1272;22450;-76
2022/06/05 12:53:27;;;;;;;3.00;2.70;;;;;;;25.01;33.65;100777.44;108368;1276;23094;-78
2022/06/05 12:56:58;;;;;;;7.60;3.40;;;;;;;25.01;33.93;100766.58;108419;1275;21986;-75
2022/06/05 12:59:43;;;;;;;5.80;5.20;;;;;;;25.01;34.01;100770.95;108215;1278;22003;-74
2022/06/05 13:02:36;;;;;;;4.10;3.20;;;;;;;24.92;34.32;100765.29;108313;1278;23654;-75
2022/06/05 13:05:39;;;;;;;5.70;5.00;;;;;;;24.87;34.63;100766.27;108248;1278;22033;-79
2022/06/05 13:08:54;;;;;;;4.00;2.70;;;;;;;24.73;34.36;100764.84;107881;1284;23858;-79
2022/06/05 13:11:46;;;;;;;3.90;2.90;;;;;;;24.66;34.60;100771.14;107851;1279;22998;-79
2022/06/05 13:14:53;;;;;;;5.70;4.10;;;;;;;24.66;34.62;100765.73;108266;1279;23447;-78
2022/06/05 13:17:48;;;;;;;5.00;3.70;;;;;;;24.70;34.48;100767.24;108559;1278;22009;-80
2022/06/05 13:20:31;;;;;;;5.60;3.40;;;;;;;24.71;33.93;100762.71;108312;1278;22436;-79
2022/06/05 13:23:37;;;;;;;6.40;2.90;;;;;;;24.60;33.78;100758.27;108038;1280;21996;-80
2022/06/05 13:26:15;;;;;;;4.60;3.10;;;;;;;24.48;34.24;100753.67;108329;1280;22011;-78